createdAt,value
2018-10-16T00:00:28.069Z,15.23
2018-10-16T00:02:56.798Z,15.22
2018-10-16T00:05:25.753Z,15.21
2018-10-16T00:07:54.382Z,15.21
2018-10-16T00:10:28.172Z,15.21
2018-10-16T00:12:57.071Z,15.19
2018-10-16T00:15:25.817Z,15.17
2018-10-16T00:17:54.656Z,15.15
2018-10-16T00:20:23.333Z,15.13
2018-10-16T00:22:52.177Z,15.10
2018-10-16T00:25:20.804Z,15.06
2018-10-16T00:27:49.735Z,15.03
2018-10-16T00:30:19.127Z,15.01
2018-10-16T00:32:47.850Z,15.00
2018-10-16T00:35:16.615Z,14.94
2018-10-16T00:37:45.289Z,14.94
2018-10-16T00:40:14.549Z,14.93
2018-10-16T00:42:43.434Z,14.90
2018-10-16T00:45:12.765Z,14.88
2018-10-16T00:47:41.560Z,14.84
2018-10-16T00:50:10.377Z,14.82
2018-10-16T00:52:39.522Z,14.79
2018-10-16T00:55:09.323Z,14.83
2018-10-16T00:57:38.410Z,14.79
2018-10-16T01:00:08.732Z,14.77
2018-10-16T01:02:37.488Z,14.77
2018-10-16T01:05:07.595Z,14.75
2018-10-16T01:07:36.423Z,14.77
2018-10-16T01:10:05.808Z,14.76
2018-10-16T01:12:34.485Z,14.73
2018-10-16T01:15:03.330Z,14.74
2018-10-16T01:17:32.258Z,14.78
2018-10-16T01:20:00.995Z,14.77
2018-10-16T01:22:29.731Z,14.76
2018-10-16T01:24:58.774Z,14.76
2018-10-16T01:27:27.395Z,14.72
2018-10-16T01:29:56.148Z,14.72
2018-10-16T01:32:24.852Z,14.69
2018-10-16T01:34:53.501Z,14.69
2018-10-16T01:37:22.304Z,14.69
2018-10-16T01:39:51.184Z,14.70
2018-10-16T01:42:20.022Z,14.69
2018-10-16T01:44:48.793Z,14.68
2018-10-16T01:47:17.586Z,14.67
2018-10-16T01:49:46.421Z,14.65
2018-10-16T01:52:15.069Z,14.60
2018-10-16T01:54:43.893Z,14.60
2018-10-16T01:57:12.845Z,14.57
2018-10-16T01:59:41.691Z,14.55
2018-10-16T02:02:10.529Z,14.52
2018-10-16T02:04:39.351Z,14.50
2018-10-16T02:07:08.132Z,14.53
2018-10-16T02:09:36.857Z,14.52
2018-10-16T02:12:05.730Z,14.54
2018-10-16T02:14:34.519Z,14.49
2018-10-16T02:17:03.462Z,14.50
2018-10-16T02:19:32.157Z,14.48
2018-10-16T02:22:00.925Z,14.48
2018-10-16T02:24:29.974Z,14.47
2018-10-16T02:26:58.689Z,14.47
2018-10-16T02:29:27.412Z,14.41
2018-10-16T02:31:56.018Z,14.39
2018-10-16T02:34:24.822Z,14.40
2018-10-16T02:36:53.414Z,14.44
2018-10-16T02:39:22.638Z,14.43
2018-10-16T02:41:51.394Z,14.43
2018-10-16T02:44:20.137Z,14.48
2018-10-16T02:46:48.855Z,14.49
2018-10-16T02:49:17.644Z,14.49
2018-10-16T02:51:46.246Z,14.49
2018-10-16T02:54:14.851Z,14.49
2018-10-16T02:56:43.564Z,14.48
2018-10-16T02:59:12.271Z,14.44
2018-10-16T03:01:40.875Z,14.42
2018-10-16T03:04:09.519Z,14.40
2018-10-16T03:06:38.208Z,14.35
2018-10-16T03:09:08.888Z,14.34
2018-10-16T03:11:37.727Z,14.34
2018-10-16T03:14:06.656Z,14.27
2018-10-16T03:16:35.305Z,14.25
2018-10-16T03:19:04.211Z,14.25
2018-10-16T03:21:32.766Z,14.29
2018-10-16T03:24:02.419Z,14.33
2018-10-16T03:26:31.263Z,14.32
2018-10-16T03:28:59.880Z,14.35
2018-10-16T03:31:28.521Z,14.43
2018-10-16T03:33:57.143Z,14.44
2018-10-16T03:36:25.807Z,14.44
2018-10-16T03:38:54.404Z,14.43
2018-10-16T03:41:23.145Z,14.41
2018-10-16T03:43:58.208Z,14.38
2018-10-16T03:46:27.175Z,14.36
2018-10-16T03:49:01.996Z,14.30
2018-10-16T03:51:30.812Z,14.26
2018-10-16T03:53:59.684Z,14.27
2018-10-16T03:56:28.361Z,14.18
2018-10-16T03:58:57.080Z,14.17
2018-10-16T04:01:26.832Z,14.16
2018-10-16T04:03:55.483Z,14.14
2018-10-16T04:06:24.211Z,14.13
2018-10-16T04:08:53.458Z,14.14
2018-10-16T04:11:22.340Z,14.10
2018-10-16T04:13:51.493Z,14.09
2018-10-16T04:16:20.519Z,14.09
2018-10-16T04:18:49.578Z,14.08
2018-10-16T04:21:18.271Z,14.02
2018-10-16T04:23:47.077Z,14.04
2018-10-16T04:26:15.830Z,14.01
2018-10-16T04:28:44.506Z,13.97
2018-10-16T04:31:13.175Z,13.96
2018-10-16T04:33:41.882Z,13.95
2018-10-16T04:36:10.568Z,13.95
2018-10-16T04:38:39.293Z,13.95
2018-10-16T04:41:07.917Z,13.95
2018-10-16T04:43:36.678Z,13.90
2018-10-16T04:46:06.916Z,13.88
2018-10-16T04:48:36.783Z,14.01
2018-10-16T04:51:05.600Z,14.06
2018-10-16T04:53:34.205Z,14.02
2018-10-16T04:56:03.540Z,13.95
2018-10-16T04:58:32.393Z,13.95
2018-10-16T05:01:01.759Z,13.95
2018-10-16T05:03:30.548Z,13.97
2018-10-16T05:05:59.312Z,14.02
2018-10-16T05:08:27.929Z,14.07
2018-10-16T05:10:56.729Z,14.09
2018-10-16T05:13:25.612Z,14.08
2018-10-16T05:15:54.647Z,14.00
2018-10-16T05:18:23.403Z,13.94
2018-10-16T05:20:52.409Z,13.92
2018-10-16T05:23:21.228Z,13.89
2018-10-16T05:25:49.992Z,13.80
2018-10-16T05:28:18.624Z,13.63
2018-10-16T05:30:47.473Z,13.66
2018-10-16T05:33:16.177Z,13.72
2018-10-16T05:35:44.906Z,13.76
2018-10-16T05:38:13.768Z,13.79
2018-10-16T05:40:42.594Z,13.81
2018-10-16T05:43:11.274Z,13.83
2018-10-16T05:45:42.222Z,13.84
2018-10-16T05:48:11.018Z,13.88
2018-10-16T05:50:39.985Z,13.87
2018-10-16T05:53:08.827Z,13.88
2018-10-16T05:55:37.596Z,13.76
2018-10-16T05:58:06.676Z,13.83
2018-10-16T06:00:41.455Z,13.75
2018-10-16T06:03:10.555Z,13.78
2018-10-16T06:05:39.377Z,13.81
2018-10-16T06:08:08.427Z,13.82
2018-10-16T06:10:37.595Z,13.82
2018-10-16T06:13:06.415Z,13.85
2018-10-16T06:15:35.251Z,13.87
2018-10-16T06:18:03.999Z,13.86
2018-10-16T06:20:33.061Z,13.89
2018-10-16T06:23:02.402Z,13.84
2018-10-16T06:25:31.221Z,13.77
2018-10-16T06:28:03.665Z,13.80
2018-10-16T06:30:32.635Z,13.83
2018-10-16T06:33:02.454Z,13.87
2018-10-16T06:35:31.290Z,13.90
2018-10-16T06:37:59.901Z,13.99
2018-10-16T06:40:28.572Z,14.02
2018-10-16T06:42:57.295Z,14.03
2018-10-16T06:45:26.006Z,14.05
2018-10-16T06:47:54.854Z,14.06
2018-10-16T06:50:23.535Z,14.07
2018-10-16T06:52:52.185Z,14.11
2018-10-16T06:55:21.074Z,14.12
2018-10-16T06:57:50.018Z,14.14
2018-10-16T07:00:18.720Z,14.18
2018-10-16T07:02:47.434Z,14.24
2018-10-16T07:05:16.093Z,14.29
2018-10-16T07:07:44.713Z,14.41
2018-10-16T07:10:13.520Z,14.48
2018-10-16T07:12:42.136Z,14.52
2018-10-16T07:15:10.990Z,14.55
2018-10-16T07:17:39.656Z,14.59
2018-10-16T07:20:09.117Z,14.66
2018-10-16T07:22:37.868Z,14.73
2018-10-16T07:25:08.220Z,14.71
2018-10-16T07:27:37.041Z,14.76
2018-10-16T07:30:07.775Z,14.85
2018-10-16T07:32:36.444Z,14.89
2018-10-16T07:35:06.643Z,14.96
2018-10-16T07:37:35.636Z,14.96
2018-10-16T07:40:04.921Z,15.05
2018-10-16T07:42:33.762Z,15.07
2018-10-16T07:45:02.554Z,15.12
2018-10-16T07:47:31.334Z,15.21
2018-10-16T07:50:00.160Z,15.30
2018-10-16T07:52:28.801Z,15.37
2018-10-16T07:54:57.476Z,15.46
2018-10-16T07:57:26.181Z,15.49
2018-10-16T07:59:54.953Z,15.58
2018-10-16T08:02:23.726Z,15.66
2018-10-16T08:04:52.568Z,15.76
2018-10-16T08:07:21.246Z,15.83
2018-10-16T08:09:50.255Z,15.92
2018-10-16T08:12:18.940Z,15.97
2018-10-16T08:14:47.674Z,16.08
2018-10-16T08:17:16.679Z,16.22
2018-10-16T08:19:45.378Z,16.35
2018-10-16T08:22:14.232Z,16.44
2018-10-16T08:24:42.983Z,16.50
2018-10-16T08:27:11.701Z,16.55
2018-10-16T08:29:40.544Z,16.62
2018-10-16T08:32:09.324Z,16.73
2018-10-16T08:34:38.033Z,16.86
2018-10-16T08:37:08.589Z,17.01
2018-10-16T08:39:39.693Z,17.17
2018-10-16T08:42:21.085Z,17.31
2018-10-16T08:45:26.790Z,17.44
2018-10-16T08:49:10.748Z,17.55
2018-10-16T08:51:45.121Z,17.67
2018-10-16T08:54:13.809Z,17.76
2018-10-16T08:56:42.584Z,17.83
2018-10-16T08:59:11.464Z,17.89
2018-10-16T09:01:40.156Z,17.92
2018-10-16T09:04:08.875Z,17.96
2018-10-16T09:06:37.653Z,18.00
2018-10-16T09:09:10.178Z,18.03
2018-10-16T09:11:38.863Z,18.05
2018-10-16T09:14:08.232Z,18.11
2018-10-16T09:16:36.946Z,18.18
2018-10-16T09:19:05.804Z,18.25
2018-10-16T09:21:34.488Z,18.35
2018-10-16T09:24:04.092Z,18.43
2018-10-16T09:26:32.816Z,18.53
2018-10-16T09:29:01.942Z,18.65
2018-10-16T09:31:30.707Z,18.76
2018-10-16T09:33:59.543Z,18.85
2018-10-16T09:36:28.245Z,18.90
2018-10-16T09:38:56.908Z,18.95
2018-10-16T09:41:25.610Z,18.97
2018-10-16T09:43:54.345Z,19.02
2018-10-16T09:46:23.256Z,19.05
2018-10-16T09:48:52.174Z,19.11
2018-10-16T09:51:21.001Z,19.13
2018-10-16T09:53:49.703Z,19.17
2018-10-16T09:56:18.465Z,19.21
2018-10-16T09:58:47.287Z,19.24
2018-10-16T10:01:21.236Z,19.28
2018-10-16T10:03:49.998Z,19.32
2018-10-16T10:06:18.811Z,19.34
2018-10-16T10:08:47.638Z,19.38
2018-10-16T10:11:16.314Z,19.42
2018-10-16T10:13:45.482Z,19.42
2018-10-16T10:16:14.215Z,19.43
2018-10-16T10:18:43.065Z,19.47
2018-10-16T10:21:11.696Z,19.54
2018-10-16T10:23:40.406Z,19.60
2018-10-16T10:26:09.138Z,19.69
2018-10-16T10:28:37.874Z,19.80
2018-10-16T10:31:06.723Z,19.95
2018-10-16T10:33:35.490Z,20.06
2018-10-16T10:36:04.344Z,20.24
2018-10-16T10:38:33.165Z,20.35
2018-10-16T10:41:02.180Z,20.48
2018-10-16T10:43:30.927Z,20.62
2018-10-16T10:46:00.235Z,20.67
2018-10-16T10:48:29.144Z,20.78
2018-10-16T10:50:58.117Z,20.98
2018-10-16T10:53:26.595Z,20.99
2018-10-16T10:55:55.547Z,20.95
2018-10-16T10:58:24.203Z,20.97
2018-10-16T11:00:53.032Z,20.98
2018-10-16T11:03:21.880Z,20.90
2018-10-16T11:05:50.411Z,20.84
2018-10-16T11:08:19.036Z,20.77
2018-10-16T11:10:47.821Z,20.74
2018-10-16T11:13:16.532Z,20.72
2018-10-16T11:15:45.319Z,20.72
2018-10-16T11:18:14.123Z,20.73
2018-10-16T11:20:43.992Z,20.74
2018-10-16T11:23:12.842Z,20.72
2018-10-16T11:25:41.546Z,20.74
2018-10-16T11:28:10.324Z,20.72
2018-10-16T11:30:39.171Z,20.71
2018-10-16T11:33:09.898Z,20.69
2018-10-16T11:35:38.572Z,20.69
2018-10-16T11:38:07.331Z,20.73
2018-10-16T11:40:36.267Z,20.74
2018-10-16T11:43:05.608Z,20.76
2018-10-16T11:45:35.959Z,20.78
2018-10-16T11:48:04.760Z,20.82
2018-10-16T11:50:33.489Z,20.82
2018-10-16T11:53:03.395Z,20.82
2018-10-16T11:55:35.224Z,20.83
2018-10-16T11:58:07.073Z,20.80
2018-10-16T12:00:36.170Z,20.80
2018-10-16T12:03:05.267Z,20.82
2018-10-16T12:05:34.010Z,20.82
2018-10-16T12:08:03.143Z,20.83
2018-10-16T12:10:32.423Z,20.88
2018-10-16T12:13:01.399Z,20.94
2018-10-16T12:15:30.105Z,20.99
2018-10-16T12:18:05.178Z,21.02
2018-10-16T12:20:45.315Z,21.07
2018-10-16T12:23:14.018Z,21.13
2018-10-16T12:25:42.947Z,21.19
2018-10-16T12:28:11.760Z,21.25
2018-10-16T12:30:41.115Z,21.27
2018-10-16T12:33:09.966Z,21.31
2018-10-16T12:35:38.629Z,21.30
2018-10-16T12:38:07.446Z,21.26
2018-10-16T12:40:36.956Z,21.24
2018-10-16T12:43:06.022Z,21.23
2018-10-16T12:45:34.654Z,21.20
2018-10-16T12:48:03.715Z,21.19
2018-10-16T12:50:32.334Z,21.17
2018-10-16T12:53:02.666Z,21.17
2018-10-16T12:55:31.926Z,21.14
2018-10-16T12:58:00.593Z,21.15
2018-10-16T13:00:29.294Z,21.12
2018-10-16T13:02:58.078Z,21.10
2018-10-16T13:05:27.138Z,21.08
2018-10-16T13:07:55.807Z,21.07
2018-10-16T13:10:24.666Z,21.07
2018-10-16T13:12:53.451Z,21.09
2018-10-16T13:15:22.247Z,21.06
2018-10-16T13:17:50.983Z,21.05
2018-10-16T13:20:19.816Z,21.04
2018-10-16T13:22:49.246Z,21.03
2018-10-16T13:25:18.247Z,20.99
2018-10-16T13:27:46.855Z,20.99
2018-10-16T13:30:19.877Z,20.98
2018-10-16T13:32:49.477Z,20.97
2018-10-16T13:35:19.546Z,20.95
2018-10-16T13:37:48.850Z,20.93
2018-10-16T13:40:17.998Z,20.88
2018-10-16T13:42:46.714Z,20.89
2018-10-16T13:45:16.395Z,20.86
2018-10-16T13:47:45.173Z,20.84
2018-10-16T13:50:16.443Z,20.83
2018-10-16T13:52:46.124Z,20.81
2018-10-16T13:55:15.058Z,20.78
2018-10-16T13:57:44.252Z,20.76
2018-10-16T14:00:16.412Z,20.77
2018-10-16T14:02:46.402Z,20.80
2018-10-16T14:05:15.155Z,20.84
2018-10-16T14:07:43.889Z,20.87
2018-10-16T14:10:13.910Z,20.90
2018-10-16T14:12:43.541Z,20.89
2018-10-16T14:15:12.935Z,20.91
2018-10-16T14:17:41.696Z,20.90
2018-10-16T14:20:10.930Z,20.88
2018-10-16T14:22:40.850Z,20.89
2018-10-16T14:25:11.041Z,20.90
2018-10-16T14:27:40.331Z,20.91
2018-10-16T14:30:10.671Z,20.89
2018-10-16T14:32:39.598Z,20.86
2018-10-16T14:35:09.285Z,20.81
2018-10-16T14:37:38.547Z,20.76
2018-10-16T14:40:08.885Z,20.71
2018-10-16T14:42:37.825Z,20.66
2018-10-16T14:45:10.906Z,20.58
2018-10-16T14:47:39.594Z,20.50
2018-10-16T14:50:09.307Z,20.44
2018-10-16T14:52:38.177Z,20.39
2018-10-16T14:55:06.997Z,20.34
2018-10-16T14:57:35.984Z,20.32
2018-10-16T15:00:06.764Z,20.30
2018-10-16T15:02:35.504Z,20.28
2018-10-16T15:05:04.477Z,20.28
2018-10-16T15:07:33.205Z,20.27
2018-10-16T15:10:09.145Z,20.25
2018-10-16T15:12:38.151Z,20.23
2018-10-16T15:15:07.943Z,20.21
2018-10-16T15:17:36.720Z,20.18
2018-10-16T15:20:07.111Z,20.17
2018-10-16T15:22:35.851Z,20.13
2018-10-16T15:25:05.473Z,20.11
2018-10-16T15:27:34.570Z,20.08
2018-10-16T15:30:03.587Z,20.05
2018-10-16T15:32:32.367Z,20.02
2018-10-16T15:35:01.557Z,19.99
2018-10-16T15:37:30.455Z,19.96
2018-10-16T15:39:59.255Z,19.93
2018-10-16T15:42:28.167Z,19.92
2018-10-16T15:44:56.960Z,19.93
2018-10-16T15:47:26.987Z,19.94
2018-10-16T15:49:55.708Z,19.93
2018-10-16T15:52:24.342Z,19.92
2018-10-16T15:54:53.007Z,19.97
2018-10-16T15:57:22.762Z,20.01
2018-10-16T15:59:51.438Z,20.04
2018-10-16T16:02:20.133Z,20.01
2018-10-16T16:04:48.625Z,19.91
2018-10-16T16:07:17.208Z,19.89
2018-10-16T16:09:46.162Z,19.90
2018-10-16T16:12:15.129Z,19.90
2018-10-16T16:14:43.850Z,19.86
2018-10-16T16:17:12.444Z,19.79
2018-10-16T16:19:41.190Z,19.74
2018-10-16T16:22:09.991Z,19.72
2018-10-16T16:24:39.178Z,19.70
2018-10-16T16:27:07.898Z,19.69
2018-10-16T16:29:36.672Z,19.69
2018-10-16T16:32:05.905Z,19.73
2018-10-16T16:34:34.551Z,19.83
2018-10-16T16:37:03.310Z,19.85
2018-10-16T16:39:32.209Z,19.87
2018-10-16T16:42:00.916Z,19.81
2018-10-16T16:44:29.594Z,19.80
2018-10-16T16:46:58.285Z,19.69
2018-10-16T16:49:27.616Z,19.61
2018-10-16T16:51:56.327Z,19.54
2018-10-16T16:54:24.956Z,19.42
2018-10-16T16:56:53.680Z,19.33
2018-10-16T16:59:22.312Z,19.24
2018-10-16T17:01:51.061Z,19.14
2018-10-16T17:04:19.751Z,19.05
2018-10-16T17:06:48.533Z,18.99
2018-10-16T17:09:17.097Z,18.92
2018-10-16T17:11:45.830Z,18.88
2018-10-16T17:14:14.470Z,18.81
2018-10-16T17:16:43.172Z,18.77
2018-10-16T17:19:11.794Z,18.72
2018-10-16T17:21:40.480Z,18.72
2018-10-16T17:24:09.177Z,18.67
2018-10-16T17:26:37.858Z,18.64
2018-10-16T17:29:06.872Z,18.63
2018-10-16T17:31:35.482Z,18.61
2018-10-16T17:34:04.152Z,18.60
2018-10-16T17:36:32.917Z,18.56
2018-10-16T17:39:01.808Z,18.57
2018-10-16T17:41:30.335Z,18.54
2018-10-16T17:43:59.040Z,18.53
2018-10-16T17:46:27.905Z,18.54
2018-10-16T17:48:56.537Z,18.49
2018-10-16T17:51:25.172Z,18.47
2018-10-16T17:53:53.759Z,18.42
2018-10-16T17:56:22.390Z,18.39
2018-10-16T17:58:50.941Z,18.36
2018-10-16T18:01:19.599Z,18.34
2018-10-16T18:03:48.219Z,18.29
2018-10-16T18:06:16.827Z,18.26
2018-10-16T18:08:45.540Z,18.26
2018-10-16T18:11:14.175Z,18.26
2018-10-16T18:13:42.918Z,18.24
2018-10-16T18:16:11.549Z,18.23
2018-10-16T18:18:40.439Z,18.23
2018-10-16T18:21:09.151Z,18.22
2018-10-16T18:23:38.040Z,18.23
2018-10-16T18:26:06.817Z,18.19
2018-10-16T18:28:35.606Z,18.19
2018-10-16T18:31:04.248Z,18.20
2018-10-16T18:33:32.887Z,18.22
2018-10-16T18:36:02.639Z,18.24
2018-10-16T18:38:31.393Z,18.24
2018-10-16T18:40:59.963Z,18.22
2018-10-16T18:43:28.538Z,18.17
2018-10-16T18:45:57.289Z,18.15
2018-10-16T18:48:26.585Z,18.12
2018-10-16T18:50:55.263Z,18.08
2018-10-16T18:53:23.937Z,18.05
2018-10-16T18:55:52.659Z,18.03
2018-10-16T18:58:21.798Z,18.00
2018-10-16T19:00:50.532Z,17.98
2018-10-16T19:03:19.178Z,17.99
2018-10-16T19:05:47.800Z,17.98
2018-10-16T19:08:16.357Z,17.95
2018-10-16T19:10:45.264Z,17.93
2018-10-16T19:13:14.355Z,17.89
2018-10-16T19:15:43.831Z,17.86
2018-10-16T19:18:12.495Z,17.82
2018-10-16T19:20:41.264Z,17.80
2018-10-16T19:23:09.875Z,17.79
2018-10-16T19:25:38.477Z,17.77
2018-10-16T19:28:08.004Z,17.76
2018-10-16T19:30:39.313Z,17.74
2018-10-16T19:33:10.206Z,17.72
2018-10-16T19:35:38.829Z,17.72
2018-10-16T19:38:07.544Z,17.73
2018-10-16T19:40:36.648Z,17.70
2018-10-16T19:43:06.213Z,17.67
2018-10-16T19:45:35.108Z,17.60
2018-10-16T19:48:03.857Z,17.64
2018-10-16T19:50:32.444Z,17.64
2018-10-16T19:53:02.724Z,17.62
2018-10-16T19:55:31.416Z,17.62
2018-10-16T19:58:00.056Z,17.64
2018-10-16T20:00:28.680Z,17.66
2018-10-16T20:02:57.346Z,17.70
2018-10-16T20:05:26.057Z,17.74
2018-10-16T20:07:54.703Z,17.74
2018-10-16T20:10:23.520Z,17.66
2018-10-16T20:12:52.185Z,17.62
2018-10-16T20:15:21.034Z,17.56
2018-10-16T20:17:49.660Z,17.51
2018-10-16T20:20:18.354Z,17.47
2018-10-16T20:22:47.007Z,17.43
2018-10-16T20:25:15.749Z,17.39
2018-10-16T20:27:44.227Z,17.35
2018-10-16T20:30:13.159Z,17.32
2018-10-16T20:32:42.331Z,17.28
2018-10-16T20:35:11.112Z,17.25
2018-10-16T20:37:40.156Z,17.22
2018-10-16T20:40:08.988Z,17.20
2018-10-16T20:42:38.477Z,17.19
2018-10-16T20:45:07.374Z,17.16
2018-10-16T20:47:36.156Z,17.14
2018-10-16T20:50:04.991Z,17.14
2018-10-16T20:52:33.656Z,17.12
2018-10-16T20:55:03.716Z,17.11
2018-10-16T20:57:32.351Z,17.07
2018-10-16T21:00:01.521Z,17.06
2018-10-16T21:02:30.079Z,17.04
2018-10-16T21:04:58.859Z,17.01
2018-10-16T21:07:27.425Z,16.99
2018-10-16T21:09:55.964Z,16.95
2018-10-16T21:12:24.577Z,16.91
2018-10-16T21:14:53.122Z,16.84
2018-10-16T21:17:21.712Z,16.83
2018-10-16T21:19:50.361Z,16.82
2018-10-16T21:22:18.954Z,16.75
2018-10-16T21:24:47.691Z,16.73
2018-10-16T21:27:16.260Z,16.69
2018-10-16T21:29:44.833Z,16.65
2018-10-16T21:32:13.461Z,16.61
2018-10-16T21:34:42.066Z,16.56
2018-10-16T21:37:10.714Z,16.54
2018-10-16T21:39:40.121Z,16.50
2018-10-16T21:42:08.709Z,16.48
2018-10-16T21:44:37.327Z,16.46
2018-10-16T21:47:06.147Z,16.43
2018-10-16T21:49:34.733Z,16.39
2018-10-16T21:52:03.567Z,16.40
2018-10-16T21:54:32.157Z,16.44
2018-10-16T21:57:00.725Z,16.39
2018-10-16T21:59:29.387Z,16.28
2018-10-16T22:03:05.771Z,16.24
2018-10-16T22:05:34.438Z,16.22
2018-10-16T22:08:04.404Z,16.18
2018-10-16T22:10:32.975Z,16.14
2018-10-16T22:13:02.163Z,16.13
2018-10-16T22:15:30.858Z,16.13
2018-10-16T22:17:59.518Z,16.11
2018-10-16T22:20:28.113Z,16.07
2018-10-16T22:22:56.787Z,16.03
2018-10-16T22:25:25.350Z,16.02
2018-10-16T22:27:53.879Z,15.99
2018-10-16T22:30:22.462Z,15.94
2018-10-16T22:32:51.046Z,15.91
2018-10-16T22:35:19.804Z,15.85
2018-10-16T22:37:48.396Z,15.86
2018-10-16T22:40:16.968Z,15.86
2018-10-16T22:42:45.727Z,15.84
2018-10-16T22:45:14.393Z,15.82
2018-10-16T22:47:42.943Z,15.80
2018-10-16T22:50:12.862Z,15.79
2018-10-16T22:52:41.420Z,15.75
2018-10-16T22:55:10.696Z,15.73
2018-10-16T22:57:39.708Z,15.73
2018-10-16T23:00:14.207Z,15.72
2018-10-16T23:02:43.448Z,15.68
2018-10-16T23:05:12.267Z,15.66
2018-10-16T23:07:40.860Z,15.68
2018-10-16T23:10:09.434Z,15.62
2018-10-16T23:12:37.966Z,15.60
2018-10-16T23:15:07.843Z,15.58
2018-10-16T23:17:36.392Z,15.56
2018-10-16T23:20:05.696Z,15.53
2018-10-16T23:22:34.263Z,15.47
2018-10-16T23:25:03.749Z,15.49
2018-10-16T23:27:32.415Z,15.48
2018-10-16T23:30:01.832Z,15.46
2018-10-16T23:32:30.421Z,15.48
2018-10-16T23:34:59.187Z,15.45
2018-10-16T23:37:27.776Z,15.41
2018-10-16T23:39:56.258Z,15.43
2018-10-16T23:42:24.902Z,15.40
2018-10-16T23:44:53.432Z,15.36
2018-10-16T23:47:22.003Z,15.37
2018-10-16T23:49:50.630Z,15.38
2018-10-16T23:52:19.137Z,15.38
2018-10-16T23:54:47.695Z,15.38
2018-10-16T23:57:16.245Z,15.36
2018-10-16T23:59:44.821Z,15.35
